Terminal Aerodrome Forecast
Issued by NWS Memphis, TN

Home | Current Version | Previous Version | Text Only | Print | Product List | Glossary On
Versions: 1 2 3 4 5 6 7 8 9 10 11 12 13 14 15 16 17 18 19 20 21 22 23 24 25 26 27 28 29 30 31 32 33 34 35 36 37 38 39 40 41 42 43 44 45 46 47 48 49 50
000
FTUS44 KMEG 192320
TAFMEM
TAF
KMEM 192320Z 2000/2024 24012G18KT P6SM SCT040 SCT150
     FM200200 21010KT P6SM VCTS SCT025 BKN040CB
      TEMPO 2002/2004 26015G25KT 2SM TSRA SCT010 OVC025CB
     FM200500 30010G16KT P6SM VCSH BKN025 BKN100
     FM201500 29014G22KT P6SM SCT030 SCT100=

USA.gov is the U.S. government's official web portal to all federal, state and local government web resources and services.